createdAt,value
2018-03-15T00:00:38.827Z,99109.84
2018-03-15T00:06:01.541Z,99104.13
2018-03-15T00:08:28.960Z,99099.10
2018-03-15T00:10:56.424Z,99093.30
2018-03-15T00:13:23.849Z,99088.10
2018-03-15T00:15:51.460Z,99094.16
2018-03-15T00:18:18.898Z,99084.27
2018-03-15T00:20:47.354Z,99095.48
2018-03-15T00:23:14.827Z,99094.42
2018-03-15T00:25:42.732Z,99096.48
2018-03-15T00:28:10.511Z,99094.78
2018-03-15T00:30:42.922Z,99091.48
2018-03-15T00:33:10.347Z,99086.31
2018-03-15T00:35:37.783Z,99087.03
2018-03-15T00:38:05.278Z,99090.28
2018-03-15T00:40:32.757Z,99090.59
2018-03-15T00:43:00.735Z,99085.83
2018-03-15T00:45:28.458Z,99085.16
2018-03-15T00:47:55.857Z,99083.48
2018-03-15T00:50:24.426Z,99080.88
2018-03-15T00:52:51.923Z,99078.70
2018-03-15T00:55:19.368Z,99081.71
2018-03-15T00:57:46.799Z,99087.48
2018-03-15T01:00:14.217Z,99082.77
2018-03-15T01:02:41.603Z,99086.98
2018-03-15T01:05:09.362Z,99085.48
2018-03-15T01:07:36.846Z,99085.14
2018-03-15T01:10:04.244Z,99086.65
2018-03-15T01:12:32.450Z,99079.47
2018-03-15T01:15:02.756Z,99083.73
2018-03-15T01:17:30.399Z,99085.73
2018-03-15T01:19:58.715Z,99085.95
2018-03-15T01:22:26.283Z,99079.04
2018-03-15T01:24:53.693Z,99080.92
2018-03-15T01:27:21.105Z,99077.90
2018-03-15T01:29:48.655Z,99077.63
2018-03-15T01:32:16.066Z,99071.98
2018-03-15T01:34:43.451Z,99073.95
2018-03-15T01:37:11.333Z,99065.95
2018-03-15T01:39:38.820Z,99071.37
2018-03-15T01:42:07.368Z,99061.98
2018-03-15T01:44:35.069Z,99057.34
2018-03-15T01:47:02.662Z,99055.34
2018-03-15T01:49:30.163Z,99048.96
2018-03-15T01:51:57.565Z,99052.05
2018-03-15T01:54:25.049Z,99044.84
2018-03-15T01:56:52.464Z,99035.30
2018-03-15T01:59:20.031Z,99035.35
2018-03-15T02:01:48.477Z,99037.45
2018-03-15T02:04:15.892Z,99032.68
2018-03-15T02:06:43.296Z,99017.91
2018-03-15T02:09:10.685Z,99021.23
2018-03-15T02:11:38.320Z,99015.03
2018-03-15T02:14:05.714Z,99018.58
2018-03-15T02:16:33.177Z,99009.44
2018-03-15T02:19:00.646Z,99000.52
2018-03-15T02:21:29.044Z,98999.98
2018-03-15T02:23:56.494Z,98996.97
2018-03-15T02:26:24.109Z,98981.84
2018-03-15T02:28:51.739Z,98982.66
2018-03-15T02:31:19.124Z,98974.94
2018-03-15T02:33:46.694Z,98970.47
2018-03-15T02:36:14.070Z,98970.61
2018-03-15T02:38:41.530Z,98970.81
2018-03-15T02:41:09.063Z,98968.61
2018-03-15T02:43:36.532Z,98955.72
2018-03-15T02:46:03.952Z,98948.77
2018-03-15T02:48:31.870Z,98947.92
2018-03-15T02:50:59.299Z,98940.28
2018-03-15T02:53:27.337Z,98938.44
2018-03-15T02:55:54.846Z,98937.94
2018-03-15T02:58:22.321Z,98924.52
2018-03-15T03:00:49.750Z,98932.69
2018-03-15T03:03:17.172Z,98937.36
2018-03-15T03:05:44.555Z,98929.35
2018-03-15T03:08:12.249Z,98932.17
2018-03-15T03:10:39.633Z,98924.20
2018-03-15T03:13:07.014Z,98929.14
2018-03-15T03:15:34.705Z,98926.52
2018-03-15T03:18:02.145Z,98933.92
2018-03-15T03:20:29.724Z,98925.55
2018-03-15T03:22:57.264Z,98942.48
2018-03-15T03:25:25.101Z,98934.34
2018-03-15T03:27:52.654Z,98942.73
2018-03-15T03:30:20.300Z,98938.98
2018-03-15T03:32:47.988Z,98941.12
2018-03-15T03:35:16.514Z,98937.23
2018-03-15T03:37:43.869Z,98931.73
2018-03-15T03:40:11.256Z,98933.30
2018-03-15T03:42:38.682Z,98935.00
2018-03-15T03:45:06.097Z,98932.65
2018-03-15T03:47:33.576Z,98926.73
2018-03-15T03:50:01.011Z,98930.70
2018-03-15T03:52:47.722Z,98926.17
2018-03-15T03:55:15.119Z,98923.52
2018-03-15T03:57:42.497Z,98918.09
2018-03-15T04:00:09.919Z,98914.98
2018-03-15T04:02:37.336Z,98906.48
2018-03-15T04:05:04.832Z,98900.95
2018-03-15T04:07:32.515Z,98888.35
2018-03-15T04:10:00.302Z,98880.28
2018-03-15T04:12:27.676Z,98874.02
2018-03-15T04:14:55.077Z,98861.84
2018-03-15T04:17:22.520Z,98857.62
2018-03-15T04:19:50.013Z,98858.20
2018-03-15T04:22:17.444Z,98860.44
2018-03-15T04:24:44.926Z,98854.81
2018-03-15T04:27:12.658Z,98845.23
2018-03-15T04:29:40.153Z,98830.05
2018-03-15T04:32:07.652Z,98817.89
2018-03-15T04:34:35.061Z,98810.39
2018-03-15T04:37:02.461Z,98806.92
2018-03-15T04:39:29.969Z,98803.72
2018-03-15T04:41:57.353Z,98811.29
2018-03-15T04:44:25.114Z,98808.41
2018-03-15T04:46:52.852Z,98824.23
2018-03-15T04:49:20.396Z,98821.06
2018-03-15T04:51:47.916Z,98824.78
2018-03-15T04:54:15.582Z,98828.55
2018-03-15T04:56:43.012Z,98827.89
2018-03-15T04:59:15.695Z,98827.09
2018-03-15T05:01:43.128Z,98813.11
2018-03-15T05:04:10.512Z,98811.21
2018-03-15T05:06:37.983Z,98807.56
2018-03-15T05:09:05.498Z,98802.92
2018-03-15T05:11:33.044Z,98799.42
2018-03-15T05:14:00.457Z,98796.86
2018-03-15T05:16:27.856Z,98801.16
2018-03-15T05:18:55.264Z,98800.17
2018-03-15T05:21:22.682Z,98802.42
2018-03-15T05:23:50.415Z,98798.23
2018-03-15T05:26:32.696Z,98791.33
2018-03-15T05:29:00.952Z,98796.67
2018-03-15T05:31:28.359Z,98791.13
2018-03-15T05:33:55.750Z,98779.50
2018-03-15T05:36:23.140Z,98768.05
2018-03-15T05:38:50.527Z,98760.28
2018-03-15T05:41:17.916Z,98746.20
2018-03-15T05:43:45.332Z,98743.67
2018-03-15T05:46:12.722Z,98738.08
2018-03-15T05:48:40.108Z,98736.69
2018-03-15T05:51:07.624Z,98734.98
2018-03-15T05:53:35.120Z,98736.14
2018-03-15T05:56:02.529Z,98728.92
2018-03-15T05:58:30.042Z,98728.67
2018-03-15T06:00:57.449Z,98742.38
2018-03-15T06:03:24.992Z,98754.55
2018-03-15T06:05:52.384Z,98756.20
2018-03-15T06:08:19.765Z,98755.97
2018-03-15T06:10:47.159Z,98748.94
2018-03-15T06:13:14.672Z,98740.06
2018-03-15T06:15:42.092Z,98730.72
2018-03-15T06:18:09.480Z,98713.01
2018-03-15T06:20:36.981Z,98710.70
2018-03-15T06:23:04.359Z,98703.19
2018-03-15T06:25:31.812Z,98705.70
2018-03-15T06:28:00.049Z,98712.59
2018-03-15T06:30:27.443Z,98713.88
2018-03-15T06:32:54.827Z,98725.39
2018-03-15T06:35:22.245Z,98716.33
2018-03-15T06:37:49.761Z,98721.30
2018-03-15T06:40:17.213Z,98723.20
2018-03-15T06:42:44.617Z,98740.83
2018-03-15T06:45:12.012Z,98743.36
2018-03-15T06:47:39.399Z,98742.03
2018-03-15T06:50:06.793Z,98740.35
2018-03-15T06:52:34.411Z,98741.30
2018-03-15T06:55:01.803Z,98729.72
2018-03-15T06:57:29.185Z,98729.96
2018-03-15T06:59:56.582Z,98728.48
2018-03-15T07:02:23.969Z,98730.34
2018-03-15T07:04:51.403Z,98734.95
2018-03-15T07:07:18.789Z,98737.72
2018-03-15T07:09:46.205Z,98740.33
2018-03-15T07:12:13.598Z,98726.33
2018-03-15T07:14:40.984Z,98730.71
2018-03-15T07:17:08.396Z,98733.02
2018-03-15T07:19:35.795Z,98727.32
2018-03-15T07:22:03.169Z,98730.26
2018-03-15T07:24:30.560Z,98721.43
2018-03-15T07:26:57.978Z,98715.59
2018-03-15T07:29:25.468Z,98715.81
2018-03-15T07:31:52.951Z,98716.19
2018-03-15T07:34:20.350Z,98710.08
2018-03-15T07:36:47.805Z,98712.42
2018-03-15T07:39:15.196Z,98696.71
2018-03-15T07:41:42.647Z,98699.77
2018-03-15T07:44:10.049Z,98697.48
2018-03-15T07:46:37.428Z,98695.27
2018-03-15T07:49:04.830Z,98690.89
2018-03-15T07:51:32.262Z,98691.07
2018-03-15T07:54:04.481Z,98679.35
2018-03-15T07:56:31.868Z,98687.77
2018-03-15T07:58:59.266Z,98694.06
2018-03-15T08:01:28.724Z,98689.52
2018-03-15T08:03:56.236Z,98680.19
2018-03-15T08:06:23.609Z,98684.88
2018-03-15T08:08:51.018Z,98678.70
2018-03-15T08:11:18.394Z,98664.38
2018-03-15T08:13:45.814Z,98667.55
2018-03-15T08:16:13.187Z,98667.06
2018-03-15T08:18:40.613Z,98669.91
2018-03-15T08:21:08.000Z,98669.84
2018-03-15T08:23:35.532Z,98663.52
2018-03-15T08:26:02.920Z,98660.11
2018-03-15T08:28:30.646Z,98674.08
2018-03-15T08:30:58.134Z,98668.05
2018-03-15T08:33:25.589Z,98668.34
2018-03-15T08:35:52.997Z,98656.84
2018-03-15T08:38:20.384Z,98645.85
2018-03-15T08:40:47.804Z,98643.02
2018-03-15T08:43:15.236Z,98633.27
2018-03-15T08:45:42.624Z,98624.73
2018-03-15T08:48:10.324Z,98625.20
2018-03-15T08:50:37.724Z,98623.00
2018-03-15T08:53:05.122Z,98631.56
2018-03-15T08:55:32.524Z,98630.97
2018-03-15T08:58:00.841Z,98628.72
2018-03-15T09:00:28.264Z,98622.63
2018-03-15T09:02:55.867Z,98615.59
2018-03-15T09:05:23.373Z,98614.89
2018-03-15T09:07:50.773Z,98603.17
2018-03-15T09:10:18.225Z,98600.71
2018-03-15T09:12:45.610Z,98589.34
2018-03-15T09:15:13.113Z,98597.31
2018-03-15T09:17:40.676Z,98595.20
2018-03-15T09:20:08.107Z,98592.57
2018-03-15T09:22:35.596Z,98592.02
2018-03-15T09:25:02.982Z,98586.89
2018-03-15T09:27:30.994Z,98577.98
2018-03-15T09:29:58.463Z,98574.94
2018-03-15T09:32:25.852Z,98573.39
2018-03-15T09:34:53.336Z,98568.51
2018-03-15T09:37:20.763Z,98571.30
2018-03-15T09:39:48.176Z,98556.95
2018-03-15T09:42:15.576Z,98563.44
2018-03-15T09:44:42.978Z,98553.47
2018-03-15T09:47:10.388Z,98544.19
2018-03-15T09:49:37.789Z,98541.06
2018-03-15T09:52:05.185Z,98550.83
2018-03-15T09:54:41.995Z,98567.61
2018-03-15T09:57:09.385Z,98570.49
2018-03-15T09:59:36.859Z,98570.70
2018-03-15T10:02:04.274Z,98557.81
2018-03-15T10:04:31.669Z,98544.76
2018-03-15T10:06:59.197Z,98540.11
2018-03-15T10:09:26.600Z,98533.94
2018-03-15T10:11:54.122Z,98527.29
2018-03-15T10:14:21.519Z,98532.08
2018-03-15T10:16:48.930Z,98526.67
2018-03-15T10:19:16.395Z,98525.26
2018-03-15T10:21:43.820Z,98522.69
2018-03-15T10:24:11.353Z,98521.74
2018-03-15T10:26:38.770Z,98511.55
2018-03-15T10:29:06.230Z,98517.51
2018-03-15T10:31:34.119Z,98515.05
2018-03-15T10:34:01.522Z,98522.99
2018-03-15T10:36:28.900Z,98508.22
2018-03-15T10:38:56.671Z,98504.48
2018-03-15T10:41:24.145Z,98503.61
2018-03-15T10:43:51.650Z,98487.95
2018-03-15T10:46:19.092Z,98486.66
2018-03-15T10:48:46.486Z,98485.73
2018-03-15T10:51:13.924Z,98479.98
2018-03-15T10:53:41.306Z,98472.68
2018-03-15T10:56:08.735Z,98473.14
2018-03-15T10:58:36.297Z,98470.69
2018-03-15T11:01:07.085Z,98458.22
2018-03-15T11:03:39.985Z,98455.73
2018-03-15T11:06:10.154Z,98458.02
2018-03-15T11:08:37.622Z,98449.50
2018-03-15T11:11:05.052Z,98455.51
2018-03-15T11:13:32.471Z,98448.63
2018-03-15T11:15:59.861Z,98448.52
2018-03-15T11:18:27.240Z,98435.49
2018-03-15T11:20:54.678Z,98436.91
2018-03-15T11:23:22.164Z,98436.84
2018-03-15T11:25:49.681Z,98446.64
2018-03-15T11:28:17.108Z,98449.69
2018-03-15T11:30:44.631Z,98449.70
2018-03-15T11:33:12.093Z,98451.45
2018-03-15T11:35:39.706Z,98452.25
2018-03-15T11:38:07.106Z,98447.41
2018-03-15T11:40:34.531Z,98441.70
2018-03-15T11:43:01.939Z,98443.36
2018-03-15T11:45:29.337Z,98454.50
2018-03-15T11:47:56.814Z,98456.98
2018-03-15T11:50:24.236Z,98457.80
2018-03-15T11:52:51.736Z,98460.08
2018-03-15T11:55:19.147Z,98447.20
2018-03-15T11:57:46.540Z,98433.21
2018-03-15T12:00:13.920Z,98432.61
2018-03-15T12:02:41.334Z,98435.17
2018-03-15T12:05:08.763Z,98422.73
2018-03-15T12:07:36.343Z,98420.78
2018-03-15T12:10:03.876Z,98413.62
2018-03-15T12:12:31.354Z,98409.75
2018-03-15T12:14:58.846Z,98412.78
2018-03-15T12:17:26.228Z,98407.22
2018-03-15T12:19:53.629Z,98403.66
2018-03-15T12:22:21.026Z,98394.38
2018-03-15T12:24:48.396Z,98395.70
2018-03-15T12:27:15.876Z,98378.11
2018-03-15T12:29:43.249Z,98373.44
2018-03-15T12:32:10.676Z,98369.19
2018-03-15T12:34:38.211Z,98356.79
2018-03-15T12:37:05.716Z,98351.27
2018-03-15T12:39:33.084Z,98345.32
2018-03-15T12:42:00.476Z,98340.17
2018-03-15T12:44:27.936Z,98334.58
2018-03-15T12:46:55.421Z,98321.33
2018-03-15T12:49:22.887Z,98314.08
2018-03-15T12:51:50.304Z,98313.30
2018-03-15T12:54:17.944Z,98305.62
2018-03-15T12:56:46.770Z,98301.76
2018-03-15T12:59:14.288Z,98294.94
2018-03-15T13:01:41.721Z,98293.67
2018-03-15T13:04:09.144Z,98278.70
2018-03-15T13:06:36.566Z,98274.36
2018-03-15T13:09:04.082Z,98270.09
2018-03-15T13:11:31.940Z,98263.70
2018-03-15T13:13:59.551Z,98255.11
2018-03-15T13:16:27.022Z,98259.88
2018-03-15T13:19:12.665Z,98249.63
2018-03-15T13:21:51.080Z,98241.48
2018-03-15T13:24:18.973Z,98248.22
2018-03-15T13:26:46.349Z,98243.53
2018-03-15T13:29:13.988Z,98246.16
2018-03-15T13:31:41.465Z,98239.39
2018-03-15T13:34:08.878Z,98240.30
2018-03-15T13:36:36.622Z,98238.17
2018-03-15T13:39:04.200Z,98230.89
2018-03-15T13:41:32.089Z,98222.38
2018-03-15T13:43:59.468Z,98216.43
2018-03-15T13:46:26.980Z,98205.75
2018-03-15T13:48:54.360Z,98213.44
2018-03-15T13:51:21.765Z,98205.34
2018-03-15T13:53:49.140Z,98206.62
2018-03-15T13:56:16.523Z,98203.61
2018-03-15T13:58:43.916Z,98195.09
2018-03-15T14:01:11.305Z,98189.55
2018-03-15T14:03:38.697Z,98194.66
2018-03-15T14:06:06.157Z,98187.83
2018-03-15T14:08:33.531Z,98192.09
2018-03-15T14:11:00.931Z,98178.47
2018-03-15T14:13:28.340Z,98178.91
2018-03-15T14:15:55.735Z,98173.79
2018-03-15T14:18:23.209Z,98162.25
2018-03-15T14:20:50.652Z,98154.55
2018-03-15T14:23:18.131Z,98146.02
2018-03-15T14:25:45.473Z,98143.03
2018-03-15T14:28:12.856Z,98146.89
2018-03-15T14:30:40.254Z,98147.75
2018-03-15T14:33:07.733Z,98149.47
2018-03-15T14:35:35.114Z,98144.33
2018-03-15T14:38:02.626Z,98150.74
2018-03-15T14:40:30.496Z,98146.47
2018-03-15T14:42:57.897Z,98148.17
2018-03-15T14:45:25.323Z,98142.63
2018-03-15T14:47:52.728Z,98148.17
2018-03-15T14:50:20.140Z,98148.59
2018-03-15T14:52:47.609Z,98147.75
2018-03-15T14:55:14.945Z,98145.62
2018-03-15T14:57:42.336Z,98141.34
2018-03-15T15:00:09.754Z,98134.11
2018-03-15T15:02:37.172Z,98126.84
2018-03-15T15:05:04.636Z,98117.03
2018-03-15T15:07:32.536Z,98117.88
2018-03-15T15:09:59.944Z,98118.34
2018-03-15T15:12:27.354Z,98118.33
2018-03-15T15:14:54.913Z,98123.00
2018-03-15T15:17:22.296Z,98123.86
2018-03-15T15:19:49.696Z,98132.39
2018-03-15T15:22:17.143Z,98128.14
2018-03-15T15:24:44.539Z,98131.97
2018-03-15T15:27:11.953Z,98134.52
2018-03-15T15:29:39.425Z,98131.56
2018-03-15T15:32:07.240Z,98139.64
2018-03-15T15:34:34.628Z,98140.52
2018-03-15T15:37:02.005Z,98151.57
2018-03-15T15:39:29.390Z,98157.55
2018-03-15T15:41:56.762Z,98166.05
2018-03-15T15:44:24.231Z,98163.50
2018-03-15T15:46:52.117Z,98162.23
2018-03-15T15:49:19.569Z,98161.80
2018-03-15T15:51:46.976Z,98162.23
2018-03-15T15:54:14.609Z,98158.84
2018-03-15T15:56:41.991Z,98157.13
2018-03-15T15:59:09.407Z,98160.54
2018-03-15T16:01:36.789Z,98165.23
2018-03-15T16:04:04.230Z,98170.34
2018-03-15T16:06:33.210Z,98169.05
2018-03-15T16:09:01.407Z,98178.87
2018-03-15T16:11:29.252Z,98176.73
2018-03-15T16:13:56.673Z,98175.45
2018-03-15T16:16:24.106Z,98178.86
2018-03-15T16:18:51.534Z,98164.81
2018-03-15T16:21:18.940Z,98163.51
2018-03-15T16:23:46.357Z,98159.64
2018-03-15T16:26:13.739Z,98163.08
2018-03-15T16:28:41.405Z,98153.28
2018-03-15T16:31:08.826Z,98162.66
2018-03-15T16:33:36.224Z,98158.38
2018-03-15T16:36:03.717Z,98165.64
2018-03-15T16:38:31.145Z,98167.76
2018-03-15T16:40:58.736Z,98179.27
2018-03-15T16:43:26.260Z,98186.48
2018-03-15T16:45:53.675Z,98195.45
2018-03-15T16:48:21.201Z,98207.39
2018-03-15T16:50:48.759Z,98212.89
2018-03-15T16:53:16.212Z,98225.71
2018-03-15T16:55:43.604Z,98236.77
2018-03-15T16:58:11.009Z,98235.97
2018-03-15T17:00:38.395Z,98238.94
2018-03-15T17:03:05.779Z,98244.08
2018-03-15T17:05:33.168Z,98255.14
2018-03-15T17:08:00.753Z,98247.89
2018-03-15T17:10:28.099Z,98255.59
2018-03-15T17:12:55.816Z,98255.98
2018-03-15T17:15:23.228Z,98262.78
2018-03-15T17:17:50.705Z,98262.38
2018-03-15T17:20:18.081Z,98264.98
2018-03-15T17:22:45.492Z,98264.97
2018-03-15T17:25:12.906Z,98258.55
2018-03-15T17:27:42.987Z,98259.84
2018-03-15T17:30:17.716Z,98257.25
2018-03-15T17:32:45.297Z,98260.25
2018-03-15T17:35:12.726Z,98259.38
2018-03-15T17:37:40.103Z,98260.19
2018-03-15T17:40:07.566Z,98260.61
2018-03-15T17:42:34.939Z,98264.89
2018-03-15T17:45:03.311Z,98258.45
2018-03-15T17:47:30.696Z,98261.91
2018-03-15T17:49:58.174Z,98266.16
2018-03-15T17:52:25.543Z,98264.90
2018-03-15T17:54:52.920Z,98271.69
2018-03-15T17:57:20.310Z,98261.92
2018-03-15T17:59:47.716Z,98259.77
2018-03-15T18:02:15.125Z,98262.35
2018-03-15T18:04:42.538Z,98258.46
2018-03-15T18:07:09.998Z,98261.02
2018-03-15T18:09:37.536Z,98261.45
2018-03-15T18:12:04.949Z,98260.09
2018-03-15T18:14:33.902Z,98261.41
2018-03-15T18:17:01.321Z,98255.00
2018-03-15T18:19:28.728Z,98242.67
2018-03-15T18:21:56.111Z,98234.07
2018-03-15T18:24:23.534Z,98208.89
2018-03-15T18:26:50.923Z,98204.92
2018-03-15T18:29:18.319Z,98221.60
2018-03-15T18:31:45.728Z,98219.91
2018-03-15T18:34:13.156Z,98225.42
2018-03-15T18:36:40.568Z,98224.18
2018-03-15T18:39:07.972Z,98225.41
2018-03-15T18:41:35.370Z,98232.61
2018-03-15T18:44:02.820Z,98240.27
2018-03-15T18:46:30.259Z,98240.30
2018-03-15T18:48:57.692Z,98238.16
2018-03-15T18:51:25.097Z,98250.06
2018-03-15T18:53:52.500Z,98256.42
2018-03-15T18:56:21.983Z,98253.80
2018-03-15T18:58:49.366Z,98258.18
2018-03-15T19:01:16.817Z,98259.38
2018-03-15T19:03:44.393Z,98261.58
2018-03-15T19:06:11.800Z,98263.70
2018-03-15T19:08:39.206Z,98268.80
2018-03-15T19:11:07.516Z,98271.29
2018-03-15T19:13:35.942Z,98273.41
2018-03-15T19:16:03.621Z,98282.32
2018-03-15T19:18:31.027Z,98287.41
2018-03-15T19:20:58.418Z,98285.78
2018-03-15T19:23:25.824Z,98287.48
2018-03-15T19:25:53.249Z,98292.58
2018-03-15T19:28:20.799Z,98282.76
2018-03-15T19:30:48.216Z,98279.41
2018-03-15T19:33:15.591Z,98282.74
2018-03-15T19:35:43.015Z,98280.16
2018-03-15T19:38:10.436Z,98278.72
2018-03-15T19:40:37.867Z,98285.17
2018-03-15T19:43:05.346Z,98287.80
2018-03-15T19:45:33.830Z,98283.48
2018-03-15T19:48:01.553Z,98285.28
2018-03-15T19:50:29.086Z,98291.99
2018-03-15T19:52:56.596Z,98285.67
2018-03-15T19:55:24.045Z,98284.84
2018-03-15T19:57:52.126Z,98290.78
2018-03-15T20:00:19.761Z,98292.49
2018-03-15T20:02:47.686Z,98291.73
2018-03-15T20:05:15.101Z,98290.81
2018-03-15T20:07:42.865Z,98299.22
2018-03-15T20:10:10.393Z,98299.69
2018-03-15T20:12:38.107Z,98303.95
2018-03-15T20:15:05.645Z,98302.71
2018-03-15T20:17:34.060Z,98301.89
2018-03-15T20:20:02.262Z,98297.66
2018-03-15T20:22:38.332Z,98308.30
2018-03-15T20:25:06.871Z,98307.02
2018-03-15T20:27:42.791Z,98313.28
2018-03-15T20:30:10.361Z,98324.42
2018-03-15T20:32:44.506Z,98324.06
2018-03-15T20:35:11.972Z,98329.00
2018-03-15T20:37:40.533Z,98328.60
2018-03-15T20:40:13.562Z,98330.27
2018-03-15T20:42:41.224Z,98337.91
2018-03-15T20:48:21.016Z,98353.16
2018-03-15T20:50:56.924Z,98357.80
2018-03-15T20:53:24.454Z,98362.31
2018-03-15T20:55:53.327Z,98364.08
2018-03-15T20:58:22.023Z,98359.43
2018-03-15T21:00:49.581Z,98362.73
2018-03-15T21:03:17.054Z,98370.45
2018-03-15T21:05:44.648Z,98370.44
2018-03-15T21:08:12.367Z,98369.54
2018-03-15T21:10:40.393Z,98368.31
2018-03-15T21:13:07.943Z,98370.11
2018-03-15T21:15:36.394Z,98365.77
2018-03-15T21:18:08.686Z,98357.42
2018-03-15T21:20:38.069Z,98369.27
2018-03-15T21:23:06.380Z,98359.38
2018-03-15T21:25:38.079Z,98356.92
2018-03-15T21:28:06.636Z,98363.27
2018-03-15T21:30:35.723Z,98364.48
2018-03-15T21:33:05.299Z,98361.90
2018-03-15T21:35:33.073Z,98357.05
2018-03-15T21:38:00.677Z,98357.20
2018-03-15T21:40:30.392Z,98356.47
2018-03-15T21:42:59.021Z,98359.59
2018-03-15T21:45:27.149Z,98360.41
2018-03-15T21:47:54.780Z,98374.52
2018-03-15T21:50:22.572Z,98378.72
2018-03-15T21:52:50.077Z,98382.46
2018-03-15T21:55:17.786Z,98386.94
2018-03-15T21:57:46.209Z,98394.47
2018-03-15T22:00:13.592Z,98391.59
2018-03-15T22:02:41.063Z,98397.62
2018-03-15T22:05:08.469Z,98399.09
2018-03-15T22:07:35.844Z,98402.94
2018-03-15T22:10:03.484Z,98407.16
2018-03-15T22:12:30.855Z,98413.09
2018-03-15T22:14:58.445Z,98413.34
2018-03-15T22:17:25.816Z,98419.42
2018-03-15T22:19:53.232Z,98416.09
2018-03-15T22:22:20.626Z,98421.13
2018-03-15T22:24:48.028Z,98416.80
2018-03-15T22:27:15.421Z,98415.62
2018-03-15T22:29:42.976Z,98419.00
2018-03-15T22:32:10.353Z,98425.06
2018-03-15T22:34:37.850Z,98430.05
2018-03-15T22:37:05.246Z,98433.59
2018-03-15T22:39:33.981Z,98442.56
2018-03-15T22:42:01.429Z,98453.69
2018-03-15T22:44:28.904Z,98470.19
2018-03-15T22:46:56.332Z,98455.72
2018-03-15T22:49:23.837Z,98454.66
2018-03-15T22:51:52.348Z,98457.03
2018-03-15T22:54:20.313Z,98459.09
2018-03-15T22:56:48.682Z,98463.55
2018-03-15T22:59:16.070Z,98470.55
2018-03-15T23:01:43.622Z,98475.67
2018-03-15T23:04:11.069Z,98475.15
2018-03-15T23:06:38.501Z,98471.27
2018-03-15T23:09:05.961Z,98469.50
2018-03-15T23:11:33.788Z,98469.89
2018-03-15T23:14:01.291Z,98468.13
2018-03-15T23:16:28.683Z,98467.77
2018-03-15T23:18:56.065Z,98478.44
2018-03-15T23:21:23.483Z,98475.44
2018-03-15T23:23:50.875Z,98472.29
2018-03-15T23:26:19.191Z,98472.25
2018-03-15T23:28:46.601Z,98488.59
2018-03-15T23:31:14.008Z,98481.34
2018-03-15T23:33:41.421Z,98469.43
2018-03-15T23:36:13.112Z,98482.25
2018-03-15T23:38:40.603Z,98482.72
2018-03-15T23:41:07.984Z,98488.70
2018-03-15T23:43:36.043Z,98492.68
2018-03-15T23:46:03.491Z,98490.06
2018-03-15T23:48:30.893Z,98483.84
2018-03-15T23:50:58.284Z,98480.73
2018-03-15T23:53:25.796Z,98481.63
2018-03-15T23:55:53.160Z,98484.01
2018-03-15T23:58:20.741Z,98485.94
